createdAt,value
2023-09-08T00:00:27.403Z,20.80
2023-09-08T00:02:54.566Z,20.70
2023-09-08T00:05:21.602Z,20.70
2023-09-08T00:07:48.760Z,20.70
2023-09-08T00:10:15.763Z,20.60
2023-09-08T00:12:43.324Z,20.60
2023-09-08T00:15:10.913Z,20.50
2023-09-08T00:17:38.733Z,20.50
2023-09-08T00:20:10.721Z,20.40
2023-09-08T00:22:39.103Z,20.40
2023-09-08T00:25:06.887Z,20.30
2023-09-08T00:27:33.829Z,20.30
2023-09-08T00:30:03.284Z,20.30
2023-09-08T00:32:30.702Z,20.30
2023-09-08T00:34:57.998Z,20.30
2023-09-08T00:37:25.364Z,20.20
2023-09-08T00:39:52.529Z,20.20
2023-09-08T00:42:19.542Z,20.10
2023-09-08T00:44:46.538Z,20.10
2023-09-08T00:47:13.579Z,20.00
2023-09-08T00:49:40.628Z,20.00
2023-09-08T00:52:07.747Z,20.00
2023-09-08T00:54:34.844Z,20.00
2023-09-08T00:57:06.646Z,19.90
2023-09-08T00:59:34.720Z,19.90
2023-09-08T01:02:02.681Z,19.80
2023-09-08T01:04:30.189Z,19.80
2023-09-08T01:06:57.926Z,19.70
2023-09-08T01:09:25.593Z,19.70
2023-09-08T01:11:52.971Z,19.70
2023-09-08T01:14:21.043Z,19.70
2023-09-08T01:16:48.027Z,19.60
2023-09-08T01:19:17.410Z,19.60
2023-09-08T01:22:03.130Z,19.60
2023-09-08T01:25:07.272Z,19.50
2023-09-08T01:27:38.339Z,19.50
2023-09-08T01:30:08.613Z,19.40
2023-09-08T01:32:36.223Z,19.40
2023-09-08T01:35:03.929Z,19.30
2023-09-08T01:37:30.894Z,19.30
2023-09-08T01:39:57.817Z,19.30
2023-09-08T01:42:24.944Z,19.30
2023-09-08T01:44:51.953Z,19.30
2023-09-08T01:47:20.180Z,19.30
2023-09-08T01:49:47.259Z,19.20
2023-09-08T01:52:14.424Z,19.20
2023-09-08T01:54:41.518Z,19.20
2023-09-08T01:57:08.592Z,19.20
2023-09-08T01:59:35.874Z,19.10
2023-09-08T02:02:02.892Z,19.10
2023-09-08T02:04:30.216Z,19.10
2023-09-08T02:06:57.128Z,19.00
2023-09-08T02:09:34.674Z,19.00
2023-09-08T02:12:02.128Z,19.00
2023-09-08T02:14:29.223Z,19.00
2023-09-08T02:16:57.502Z,19.00
2023-09-08T02:19:24.734Z,18.90
2023-09-08T02:21:51.764Z,19.00
2023-09-08T02:24:18.780Z,18.90
2023-09-08T02:26:45.762Z,18.90
2023-09-08T02:29:12.813Z,18.90
2023-09-08T02:31:39.737Z,18.90
2023-09-08T02:34:06.765Z,18.90
2023-09-08T02:36:33.848Z,18.90
2023-09-08T02:39:00.849Z,18.90
2023-09-08T02:41:27.827Z,18.80
2023-09-08T02:43:54.936Z,18.80
2023-09-08T02:46:23.151Z,18.80
2023-09-08T02:48:50.242Z,18.80
2023-09-08T02:51:17.212Z,18.80
2023-09-08T02:53:44.175Z,18.70
2023-09-08T02:56:11.272Z,18.70
2023-09-08T02:58:38.627Z,18.70
2023-09-08T03:01:14.717Z,18.60
2023-09-08T03:03:45.170Z,18.60
2023-09-08T03:06:15.145Z,18.50
2023-09-08T03:08:42.296Z,18.50
2023-09-08T03:11:10.053Z,18.50
2023-09-08T03:13:37.261Z,18.40
2023-09-08T03:16:08.731Z,18.50
2023-09-08T03:18:37.991Z,18.40
2023-09-08T03:21:10.624Z,18.40
2023-09-08T03:23:43.093Z,18.40
2023-09-08T03:26:10.901Z,18.30
2023-09-08T03:28:39.880Z,18.30
2023-09-08T03:31:07.395Z,18.30
2023-09-08T03:33:34.866Z,18.30
2023-09-08T03:36:02.453Z,18.30
2023-09-08T03:38:29.512Z,18.30
2023-09-08T03:40:56.430Z,18.30
2023-09-08T03:43:23.488Z,18.30
2023-09-08T03:45:50.598Z,18.20
2023-09-08T03:48:17.719Z,18.20
2023-09-08T03:50:46.408Z,18.20
2023-09-08T03:53:14.013Z,18.10
2023-09-08T03:55:41.185Z,18.10
2023-09-08T03:58:08.152Z,18.10
2023-09-08T04:00:36.205Z,18.10
2023-09-08T04:03:03.796Z,18.10
2023-09-08T04:05:31.116Z,18.10
2023-09-08T04:07:58.168Z,18.00
2023-09-08T04:10:25.319Z,18.00
2023-09-08T04:12:52.311Z,18.00
2023-09-08T04:15:19.415Z,18.00
2023-09-08T04:17:47.237Z,17.90
2023-09-08T04:20:16.137Z,17.90
2023-09-08T04:22:43.488Z,17.90
2023-09-08T04:25:11.518Z,17.80
2023-09-08T04:27:38.678Z,17.80
2023-09-08T04:30:06.893Z,17.80
2023-09-08T04:32:34.222Z,17.80
2023-09-08T04:35:01.278Z,17.70
2023-09-08T04:37:28.413Z,17.70
2023-09-08T04:39:55.469Z,17.70
2023-09-08T04:42:22.771Z,17.60
2023-09-08T04:44:49.933Z,17.60
2023-09-08T04:47:17.347Z,17.60
2023-09-08T04:49:44.511Z,17.60
2023-09-08T04:52:12.489Z,17.60
2023-09-08T04:54:40.546Z,17.60
2023-09-08T04:57:21.776Z,17.50
2023-09-08T05:02:19.710Z,17.60
2023-09-08T05:04:46.848Z,17.50
2023-09-08T05:07:14.824Z,17.50
2023-09-08T05:09:42.231Z,17.50
2023-09-08T05:12:09.272Z,17.50
2023-09-08T05:14:36.251Z,17.50
2023-09-08T05:17:03.517Z,17.50
2023-09-08T05:19:30.534Z,17.50
2023-09-08T05:21:57.639Z,17.50
2023-09-08T05:24:26.921Z,17.50
2023-09-08T05:26:53.944Z,17.50
2023-09-08T05:29:20.833Z,17.50
2023-09-08T05:31:47.797Z,17.60
2023-09-08T05:34:14.755Z,17.60
2023-09-08T21:16:56.229Z,23.50
2023-09-08T21:19:23.162Z,23.40
2023-09-08T21:21:50.203Z,23.40
2023-09-08T21:24:17.305Z,23.40
2023-09-08T21:26:44.450Z,23.40
2023-09-08T21:29:11.723Z,23.40
2023-09-08T21:31:38.727Z,23.30
2023-09-08T21:36:33.621Z,23.20
2023-09-08T21:39:02.540Z,23.10
2023-09-08T21:41:29.826Z,23.10
2023-09-08T21:43:56.800Z,23.00
2023-09-08T21:46:23.837Z,23.00
2023-09-08T21:48:50.813Z,22.90
2023-09-08T21:51:17.768Z,22.80
2023-09-08T21:53:44.676Z,22.70
2023-09-08T21:56:11.735Z,22.70
2023-09-08T21:58:38.840Z,22.70
2023-09-08T22:01:06.080Z,22.60
2023-09-08T22:03:33.437Z,22.60
2023-09-08T22:06:00.752Z,22.60
2023-09-08T22:08:27.815Z,22.50
2023-09-08T22:10:54.817Z,22.40
2023-09-08T22:13:21.894Z,22.40
2023-09-08T22:15:49.013Z,22.40
2023-09-08T22:18:16.072Z,22.40
2023-09-08T22:20:43.001Z,22.30
2023-09-08T22:23:12.167Z,22.30
2023-09-08T22:25:39.366Z,22.20
2023-09-08T22:28:07.721Z,22.20
2023-09-08T22:30:34.806Z,22.10
2023-09-08T22:33:01.847Z,22.10
2023-09-08T22:35:28.998Z,22.00
2023-09-08T22:37:55.937Z,22.00
2023-09-08T22:40:22.970Z,22.00
2023-09-08T22:42:53.049Z,21.90
2023-09-08T22:45:20.108Z,22.00
2023-09-08T22:47:47.189Z,22.00
2023-09-08T22:50:14.358Z,22.00
2023-09-08T22:52:41.719Z,22.00
2023-09-08T22:55:24.071Z,22.00
2023-09-08T22:57:52.961Z,22.00
2023-09-08T23:00:20.784Z,22.00
2023-09-08T23:02:48.555Z,22.00
2023-09-08T23:05:15.919Z,21.90
2023-09-08T23:07:46.624Z,21.90
2023-09-08T23:10:13.907Z,21.90
2023-09-08T23:12:41.469Z,21.80
2023-09-08T23:15:10.379Z,21.70
2023-09-08T23:17:37.637Z,21.70
2023-09-08T23:20:16.295Z,21.60
2023-09-08T23:22:44.792Z,21.60
2023-09-08T23:25:11.913Z,21.50
2023-09-08T23:27:39.086Z,21.50
2023-09-08T23:30:07.079Z,21.40
2023-09-08T23:32:34.124Z,21.40
2023-09-08T23:35:01.923Z,21.40
2023-09-08T23:37:28.991Z,21.30
2023-09-08T23:39:55.952Z,21.30
2023-09-08T23:42:22.958Z,21.30
2023-09-08T23:44:49.930Z,21.30
2023-09-08T23:47:16.909Z,21.30
2023-09-08T23:49:44.429Z,21.30
2023-09-08T23:52:11.477Z,21.30
2023-09-08T23:54:38.423Z,21.30
2023-09-08T23:57:05.790Z,21.30
2023-09-08T23:59:32.949Z,21.30
